Time;durP1;ratioP1;P1;durP2;ratioP2;P2;SDS_P1;SDS_P2;PMS_P1;PMS_P2;Temp;Humidity;BMP_temperature;BMP_pressure;BME280_temperature;BME280_humidity;BME280_pressure;Samples;Min_cycle;Max_cycle;Signal;HPM_P1;HPM_P2
2023/01/17 00:01:33;;;;;;;;;;;-0.90;99.90;;;;;;5050807;28;20264;-75
2023/01/17 00:12:12;;;;;;;;;;;-0.90;99.90;;;;;;5050033;28;20289;-76
2023/01/17 00:14:38;;;;;;;;;;;-0.90;99.90;;;;;;5050800;28;19970;-76
2023/01/17 00:17:04;;;;;;;;;;;-0.80;99.90;;;;;;5049621;28;20335;-77
2023/01/17 01:34:08;;;;;;;;;;;-1.60;99.90;;;;;;5052148;28;20313;-78
2023/01/17 01:36:33;;;;;;;;;;;-1.60;99.90;;;;;;5052975;28;19928;-76
2023/01/17 01:38:59;;;;;;;;;;;-1.60;99.90;;;;;;5054681;28;20309;-76
2023/01/17 01:41:25;;;;;;;;;;;-1.60;99.90;;;;;;5054022;28;19909;-76
2023/01/17 01:43:52;;;;;;;;;;;-1.70;99.90;;;;;;5052717;28;19976;-76
2023/01/17 01:46:38;;;;;;;;;;;-1.70;99.90;;;;;;5053791;28;19917;-76
2023/01/17 01:49:10;;;;;;;;;;;-1.70;99.90;;;;;;5053667;28;20266;-75
2023/01/17 01:51:38;;;;;;;;;;;-1.70;99.90;;;;;;5054208;28;19915;-77
2023/01/17 01:54:13;;;;;;;;;;;-1.70;99.90;;;;;;5052524;28;19925;-76
2023/01/17 01:56:39;;;;;;;;;;;-1.70;99.90;;;;;;5053823;28;19908;-77
2023/01/17 01:59:07;;;;;;;;;;;-1.70;99.90;;;;;;5067712;28;19913;-76
2023/01/17 02:01:33;;;;;;;;;;;-1.70;99.90;;;;;;5073527;28;19908;-76
2023/01/17 02:03:59;;;;;;;;;;;-1.70;99.90;;;;;;5074142;28;19970;-76
2023/01/17 02:06:24;;;;;;;;;;;-1.70;99.90;;;;;;5073626;28;19916;-76
2023/01/17 02:08:54;;;;;;;;;;;-1.60;99.90;;;;;;5073476;28;19951;-76
2023/01/17 02:11:20;;;;;;;;;;;-1.60;99.90;;;;;;5073438;28;19969;-77
2023/01/17 02:13:46;;;;;;;;;;;-1.60;99.90;;;;;;5073592;28;19969;-76
2023/01/17 02:16:17;;;;;;;;;;;-1.60;99.90;;;;;;5073399;28;19913;-78
2023/01/17 02:19:00;;;;;;;;;;;-1.60;99.90;;;;;;5074060;28;19908;-76
2023/01/17 02:21:33;;;;;;;;;;;-1.60;99.90;;;;;;5073282;28;19955;-76
2023/01/17 02:24:14;;;;;;;;;;;-1.50;99.90;;;;;;5073628;28;19954;-77
2023/01/17 02:26:39;;;;;;;;;;;-1.50;99.90;;;;;;5073705;28;20318;-76
2023/01/17 02:29:33;;;;;;;;;;;-1.50;99.90;;;;;;5073099;28;19960;-75
2023/01/17 02:32:13;;;;;;;;;;;-1.50;99.90;;;;;;5073587;28;20280;-76
2023/01/17 02:34:58;;;;;;;;;;;-1.60;99.90;;;;;;5073491;28;19923;-76
2023/01/17 02:37:43;;;;;;;;;;;-1.60;99.90;;;;;;5072549;28;20308;-76
2023/01/17 02:40:12;;;;;;;;;;;-1.50;99.90;;;;;;5073478;28;19908;-76
2023/01/17 02:42:41;;;;;;;;;;;-1.50;99.90;;;;;;5073363;28;19919;-76
2023/01/17 02:45:07;;;;;;;;;;;-1.50;99.90;;;;;;5072841;28;19909;-77
2023/01/17 02:47:32;;;;;;;;;;;-1.50;99.90;;;;;;5072376;28;19934;-77
2023/01/17 02:50:09;;;;;;;;;;;-1.50;99.90;;;;;;5072868;28;20364;-75
2023/01/17 02:52:43;;;;;;;;;;;-1.50;99.90;;;;;;5072427;28;20007;-76
2023/01/17 02:55:28;;;;;;;;;;;-1.40;99.90;;;;;;5071368;28;20373;-75
2023/01/17 02:57:59;;;;;;;;;;;-1.50;99.90;;;;;;5072985;28;19919;-76
2023/01/17 03:00:37;;;;;;;;;;;-1.50;99.90;;;;;;5072240;28;20267;-75
2023/01/17 03:03:17;;;;;;;;;;;-1.40;99.90;;;;;;5072765;28;19912;-76
2023/01/17 03:05:47;;;;;;;;;;;-1.40;99.90;;;;;;5073163;28;19944;-76
2023/01/17 03:08:14;;;;;;;;;;;-1.40;99.90;;;;;;5072146;28;19920;-79
2023/01/17 03:10:40;;;;;;;;;;;-1.50;99.90;;;;;;5072706;28;19909;-76
2023/01/17 03:13:06;;;;;;;;;;;-1.50;99.90;;;;;;5072289;28;19916;-76
2023/01/17 03:15:31;;;;;;;;;;;-1.50;99.90;;;;;;5072283;28;19922;-76
2023/01/17 03:17:59;;;;;;;;;;;-1.50;99.90;;;;;;5072775;28;19912;-76
2023/01/17 03:20:25;;;;;;;;;;;-1.60;99.90;;;;;;5072220;28;20365;-76
2023/01/17 03:22:51;;;;;;;;;;;-1.50;99.90;;;;;;5072397;28;20016;-75
2023/01/17 03:25:16;;;;;;;;;;;-1.60;99.90;;;;;;5072045;28;20003;-78
2023/01/17 03:27:42;;;;;;;;;;;-1.60;99.90;;;;;;5072206;28;19919;-75
2023/01/17 03:30:08;;;;;;;;;;;-1.60;99.90;;;;;;5072564;28;20053;-77
2023/01/17 03:32:33;;;;;;;;;;;-1.60;99.90;;;;;;5071837;28;19912;-76
2023/01/17 03:34:59;;;;;;;;;;;-1.70;99.90;;;;;;5071730;28;19908;-76
2023/01/17 03:37:25;;;;;;;;;;;-1.70;99.90;;;;;;5070078;28;19916;-77
2023/01/17 03:39:50;;;;;;;;;;;-1.70;99.90;;;;;;5072020;28;19909;-76
2023/01/17 03:42:16;;;;;;;;;;;-1.70;99.90;;;;;;5071707;28;19915;-78
2023/01/17 03:44:41;;;;;;;;;;;-1.80;99.90;;;;;;5072365;28;20324;-76
2023/01/17 03:47:10;;;;;;;;;;;-1.80;99.90;;;;;;5072121;28;20419;-76
2023/01/17 03:49:39;;;;;;;;;;;-1.80;99.90;;;;;;5071810;28;19913;-76
2023/01/17 03:52:05;;;;;;;;;;;-1.80;99.90;;;;;;5072245;28;20389;-76
2023/01/17 03:54:30;;;;;;;;;;;-1.90;99.90;;;;;;5071270;28;19951;-76
2023/01/17 03:56:56;;;;;;;;;;;-1.90;99.90;;;;;;5070904;28;19909;-76
2023/01/17 03:59:21;;;;;;;;;;;-1.90;99.90;;;;;;5071088;28;20354;-76
2023/01/17 04:01:47;;;;;;;;;;;-1.90;99.90;;;;;;5071804;28;19987;-76
2023/01/17 04:04:14;;;;;;;;;;;-1.90;99.90;;;;;;5071678;28;19958;-76
2023/01/17 04:06:39;;;;;;;;;;;-1.90;99.90;;;;;;5071195;28;19967;-76
2023/01/17 04:09:05;;;;;;;;;;;-1.90;99.90;;;;;;5071482;28;20318;-75
2023/01/17 04:11:31;;;;;;;;;;;-1.90;99.90;;;;;;5071658;28;19960;-75
2023/01/17 04:13:56;;;;;;;;;;;-2.00;99.90;;;;;;5071447;28;19908;-76
2023/01/17 04:16:25;;;;;;;;;;;-1.90;99.90;;;;;;5071064;28;19908;-77
2023/01/17 04:18:50;;;;;;;;;;;-1.90;99.90;;;;;;5071379;28;19931;-76
2023/01/17 04:21:16;;;;;;;;;;;-1.90;99.90;;;;;;5071825;28;19908;-76
2023/01/17 04:23:41;;;;;;;;;;;-1.90;99.90;;;;;;5071042;28;19989;-76
2023/01/17 04:26:08;;;;;;;;;;;-1.90;99.90;;;;;;5071063;28;19912;-76
2023/01/17 04:28:33;;;;;;;;;;;-1.90;99.90;;;;;;5070898;28;19912;-75
2023/01/17 04:30:59;;;;;;;;;;;-1.90;99.90;;;;;;5071559;28;20342;-76
2023/01/17 04:33:24;;;;;;;;;;;-1.90;99.90;;;;;;5070286;28;19948;-76
2023/01/17 04:35:53;;;;;;;;;;;-1.90;99.90;;;;;;5071191;28;19916;-77
2023/01/17 04:38:19;;;;;;;;;;;-1.90;99.90;;;;;;5070757;28;19931;-79
2023/01/17 04:40:44;;;;;;;;;;;-1.90;99.90;;;;;;5070399;28;20322;-76
2023/01/17 04:43:10;;;;;;;;;;;-2.00;99.90;;;;;;5069767;28;20310;-77
2023/01/17 04:45:37;;;;;;;;;;;-2.00;99.90;;;;;;5070582;28;19916;-77
2023/01/17 04:48:03;;;;;;;;;;;-2.10;99.90;;;;;;5070545;28;20355;-76
2023/01/17 04:50:29;;;;;;;;;;;-2.10;99.90;;;;;;5070461;28;19936;-76
2023/01/17 04:52:55;;;;;;;;;;;-2.10;99.90;;;;;;5070776;28;20358;-76
2023/01/17 04:55:20;;;;;;;;;;;-2.20;99.90;;;;;;5070272;28;19921;-79
2023/01/17 04:57:46;;;;;;;;;;;-2.20;99.90;;;;;;5069160;28;20049;-76
2023/01/17 05:00:12;;;;;;;;;;;-2.20;99.90;;;;;;5071154;28;20334;-76
2023/01/17 05:02:38;;;;;;;;;;;-2.20;99.90;;;;;;5070249;28;19927;-77
2023/01/17 05:05:04;;;;;;;;;;;-2.20;99.90;;;;;;5070905;28;20332;-76
2023/01/17 05:07:29;;;;;;;;;;;-2.30;99.90;;;;;;5070120;28;20046;-77
2023/01/17 05:09:55;;;;;;;;;;;-2.30;99.90;;;;;;5070688;28;19954;-76
2023/01/17 05:12:20;;;;;;;;;;;-2.30;99.90;;;;;;5070549;28;20258;-78
2023/01/17 05:14:46;;;;;;;;;;;-2.30;99.90;;;;;;5069824;28;19984;-76
2023/01/17 05:17:11;;;;;;;;;;;-2.30;99.90;;;;;;5071021;28;19927;-76
2023/01/17 05:19:37;;;;;;;;;;;-2.30;99.90;;;;;;5070162;28;20381;-77
2023/01/17 05:22:13;;;;;;;;;;;-2.40;99.90;;;;;;5070718;28;19928;-76
2023/01/17 05:24:39;;;;;;;;;;;-2.40;99.90;;;;;;5069836;28;19951;-76
2023/01/17 05:27:05;;;;;;;;;;;-2.30;99.90;;;;;;5070588;28;19993;-75
2023/01/17 05:29:30;;;;;;;;;;;-2.30;99.90;;;;;;5069582;28;19996;-76
2023/01/17 05:31:56;;;;;;;;;;;-2.30;99.90;;;;;;5070851;28;19916;-76
2023/01/17 05:34:22;;;;;;;;;;;-2.30;99.90;;;;;;5069019;28;19909;-79
2023/01/17 05:36:47;;;;;;;;;;;-2.30;99.90;;;;;;5070533;28;19912;-77
2023/01/17 05:39:13;;;;;;;;;;;-2.30;99.90;;;;;;5070839;28;19935;-75
2023/01/17 05:41:39;;;;;;;;;;;-2.20;99.90;;;;;;5069695;28;19913;-76
2023/01/17 05:44:04;;;;;;;;;;;-2.20;99.90;;;;;;5070447;28;19970;-76
2023/01/17 05:46:30;;;;;;;;;;;-2.20;99.90;;;;;;5069875;28;19913;-76
2023/01/17 05:48:55;;;;;;;;;;;-2.20;99.90;;;;;;5069649;28;20003;-75
2023/01/17 05:51:21;;;;;;;;;;;-2.30;99.90;;;;;;5070497;28;19908;-76
2023/01/17 05:53:46;;;;;;;;;;;-2.30;99.90;;;;;;5069498;28;20399;-76
2023/01/17 05:56:12;;;;;;;;;;;-2.30;99.90;;;;;;5070330;28;19908;-76
2023/01/17 05:58:38;;;;;;;;;;;-2.40;99.90;;;;;;5069660;28;20028;-77
2023/01/17 06:01:04;;;;;;;;;;;-2.40;99.90;;;;;;5070461;28;19908;-77
2023/01/17 06:03:30;;;;;;;;;;;-2.40;99.90;;;;;;5069789;28;19920;-77
2023/01/17 06:05:55;;;;;;;;;;;-2.40;99.90;;;;;;5070056;28;20354;-78
2023/01/17 06:08:22;;;;;;;;;;;-2.40;99.90;;;;;;5070309;28;20020;-76
2023/01/17 06:10:48;;;;;;;;;;;-2.40;99.90;;;;;;5069320;28;19912;-76
2023/01/17 06:13:15;;;;;;;;;;;-2.50;99.90;;;;;;5070152;28;19912;-76
2023/01/17 06:15:41;;;;;;;;;;;-2.50;99.90;;;;;;5069073;28;20290;-77
2023/01/17 06:18:11;;;;;;;;;;;-2.50;99.90;;;;;;5070007;28;19974;-77
2023/01/17 06:20:36;;;;;;;;;;;-2.40;99.90;;;;;;5071753;28;20361;-78
2023/01/17 06:23:03;;;;;;;;;;;-2.40;99.90;;;;;;5072023;28;19908;-77
2023/01/17 06:25:29;;;;;;;;;;;-2.40;99.90;;;;;;5072804;28;20012;-78
2023/01/17 06:27:55;;;;;;;;;;;-2.50;99.90;;;;;;5073293;28;19974;-77
2023/01/17 06:30:21;;;;;;;;;;;-2.50;99.90;;;;;;5072984;28;19916;-76
2023/01/17 06:32:53;;;;;;;;;;;-2.50;99.90;;;;;;5072816;28;20460;-76
2023/01/17 06:35:19;;;;;;;;;;;-2.60;99.90;;;;;;5072688;28;20329;-76
2023/01/17 06:37:45;;;;;;;;;;;-2.60;99.90;;;;;;5072530;28;19916;-76
2023/01/17 06:40:11;;;;;;;;;;;-2.60;99.90;;;;;;5073217;28;19908;-77
2023/01/17 06:42:36;;;;;;;;;;;-2.60;99.90;;;;;;5073689;28;19916;-77
2023/01/17 06:45:02;;;;;;;;;;;-2.60;99.90;;;;;;5073911;28;19936;-78
2023/01/17 06:47:28;;;;;;;;;;;-2.60;99.90;;;;;;5073267;28;19912;-79
2023/01/17 06:49:53;;;;;;;;;;;-2.60;99.90;;;;;;5072595;28;20058;-77
2023/01/17 06:52:19;;;;;;;;;;;-2.60;99.90;;;;;;5072859;28;19927;-78
2023/01/17 06:54:44;;;;;;;;;;;-2.70;99.90;;;;;;5071745;28;19999;-76
2023/01/17 06:57:10;;;;;;;;;;;-2.70;99.90;;;;;;5055048;28;19908;-77
2023/01/17 06:59:35;;;;;;;;;;;-2.70;99.90;;;;;;5071758;28;19982;-78
2023/01/17 07:02:01;;;;;;;;;;;-2.70;99.90;;;;;;5070263;28;19920;-78
2023/01/17 07:04:27;;;;;;;;;;;-2.70;99.90;;;;;;5072078;28;20273;-77
2023/01/17 07:06:52;;;;;;;;;;;-2.70;99.90;;;;;;5071728;28;19995;-76
2023/01/17 07:09:18;;;;;;;;;;;-2.70;99.90;;;;;;5071029;28;19916;-77
2023/01/17 07:11:44;;;;;;;;;;;-2.70;99.90;;;;;;5071982;28;20345;-76
2023/01/17 07:14:12;;;;;;;;;;;-2.70;99.90;;;;;;5072531;28;19954;-76
2023/01/17 07:16:38;;;;;;;;;;;-2.70;99.90;;;;;;5071760;28;19912;-77
2023/01/17 07:19:03;;;;;;;;;;;-2.70;99.90;;;;;;5072023;28;19908;-76
2023/01/17 07:21:29;;;;;;;;;;;-2.70;99.90;;;;;;5072306;28;19915;-79
2023/01/17 07:23:54;;;;;;;;;;;-2.70;99.90;;;;;;5071552;28;19944;-77
2023/01/17 07:26:20;;;;;;;;;;;-2.70;99.90;;;;;;5072350;28;19913;-77
2023/01/17 07:28:45;;;;;;;;;;;-2.70;99.90;;;;;;5071678;28;19913;-77
2023/01/17 07:31:11;;;;;;;;;;;-2.70;99.90;;;;;;5070829;28;19912;-77
2023/01/17 07:33:37;;;;;;;;;;;-2.70;99.90;;;;;;5071719;28;20266;-77
2023/01/17 07:36:04;;;;;;;;;;;-2.60;99.90;;;;;;5070822;28;19997;-77
2023/01/17 07:38:29;;;;;;;;;;;-2.60;99.90;;;;;;5070386;28;20332;-79
2023/01/17 07:40:58;;;;;;;;;;;-2.60;99.90;;;;;;5072103;28;19959;-77
2023/01/17 07:43:24;;;;;;;;;;;-2.60;99.90;;;;;;5072387;28;20009;-77
2023/01/17 07:45:50;;;;;;;;;;;-2.50;99.90;;;;;;5071510;28;19965;-77
2023/01/17 07:48:17;;;;;;;;;;;-2.50;99.90;;;;;;5072255;28;19983;-77
2023/01/17 07:50:42;;;;;;;;;;;-2.50;99.90;;;;;;5070942;28;19935;-76
2023/01/17 07:53:08;;;;;;;;;;;-2.50;99.90;;;;;;5071129;28;19920;-77
2023/01/17 07:55:34;;;;;;;;;;;-2.50;99.90;;;;;;5070527;28;20369;-78
2023/01/17 07:57:59;;;;;;;;;;;-2.50;99.90;;;;;;5071814;28;20376;-77
2023/01/17 08:00:26;;;;;;;;;;;-2.50;99.90;;;;;;5070166;28;19908;-77
2023/01/17 08:02:56;;;;;;;;;;;-2.40;99.90;;;;;;5071254;28;20388;-77
2023/01/17 08:05:22;;;;;;;;;;;-2.40;99.90;;;;;;5070830;28;20353;-76
2023/01/17 08:07:47;;;;;;;;;;;-2.40;99.90;;;;;;5070643;28;19920;-76
2023/01/17 08:10:16;;;;;;;;;;;-2.40;99.90;;;;;;5070551;28;20348;-77
2023/01/17 08:12:46;;;;;;;;;;;-2.40;99.90;;;;;;5070882;28;19931;-77
2023/01/17 08:15:11;;;;;;;;;;;-2.40;99.90;;;;;;5071332;28;19995;-77
2023/01/17 08:17:37;;;;;;;;;;;-2.40;99.90;;;;;;5070857;28;19944;-77
2023/01/17 08:20:04;;;;;;;;;;;-2.40;99.90;;;;;;5071092;28;20329;-77
2023/01/17 08:22:31;;;;;;;;;;;-2.30;99.90;;;;;;5071125;28;19909;-77
2023/01/17 08:24:56;;;;;;;;;;;-2.40;99.90;;;;;;5070436;28;19908;-76
2023/01/17 08:27:22;;;;;;;;;;;-2.30;99.90;;;;;;5068976;28;19920;-76
2023/01/17 08:29:48;;;;;;;;;;;-2.30;99.90;;;;;;5070016;28;19916;-76
2023/01/17 08:32:14;;;;;;;;;;;-2.30;99.90;;;;;;5067086;28;19924;-76
2023/01/17 08:34:40;;;;;;;;;;;-2.30;99.90;;;;;;5060068;28;19960;-76
2023/01/17 08:37:05;;;;;;;;;;;-2.30;99.90;;;;;;5056988;28;19986;-76
2023/01/17 08:39:31;;;;;;;;;;;-2.30;99.90;;;;;;5051061;28;19963;-76
2023/01/17 08:41:56;;;;;;;;;;;-2.30;99.90;;;;;;5049686;28;19913;-76
2023/01/17 08:44:22;;;;;;;;;;;-2.30;99.90;;;;;;5050834;28;19940;-76
2023/01/17 08:46:47;;;;;;;;;;;-2.30;99.90;;;;;;5050514;28;19963;-76
2023/01/17 08:49:13;;;;;;;;;;;-2.40;99.90;;;;;;5050550;28;19970;-76
2023/01/17 08:51:39;;;;;;;;;;;-2.40;99.90;;;;;;5050056;28;19916;-77
2023/01/17 08:54:04;;;;;;;;;;;-2.40;99.90;;;;;;5056696;28;19952;-76
2023/01/17 08:56:30;;;;;;;;;;;-2.40;99.90;;;;;;5065075;28;19909;-75
2023/01/17 08:58:55;;;;;;;;;;;-2.40;99.90;;;;;;5070251;28;20085;-76
2023/01/17 09:01:21;;;;;;;;;;;-2.40;99.90;;;;;;5059238;28;20089;-75
2023/01/17 09:03:47;;;;;;;;;;;-2.40;99.90;;;;;;5060729;28;19913;-76
2023/01/17 09:06:14;;;;;;;;;;;-2.40;99.90;;;;;;5060208;28;20306;-76
2023/01/17 09:08:40;;;;;;;;;;;-2.40;99.90;;;;;;5061742;28;20346;-77
2023/01/17 09:11:10;;;;;;;;;;;-2.40;99.90;;;;;;5064317;28;20009;-76
2023/01/17 09:13:36;;;;;;;;;;;-2.30;99.90;;;;;;5065177;28;19912;-79
2023/01/17 09:16:01;;;;;;;;;;;-2.30;99.90;;;;;;5070134;28;20376;-76
2023/01/17 09:18:28;;;;;;;;;;;-2.30;99.90;;;;;;5070682;28;20215;-75
2023/01/17 09:20:54;;;;;;;;;;;-2.10;99.90;;;;;;5070070;28;20379;-75
2023/01/17 09:23:21;;;;;;;;;;;-2.10;99.90;;;;;;5070594;28;20003;-77
2023/01/17 09:25:53;;;;;;;;;;;-2.00;99.90;;;;;;5069834;28;19908;-76
2023/01/17 09:28:19;;;;;;;;;;;-1.90;99.90;;;;;;5070488;28;19912;-76
2023/01/17 09:30:45;;;;;;;;;;;-1.80;99.90;;;;;;5070011;28;20361;-77
2023/01/17 09:33:11;;;;;;;;;;;-1.80;99.90;;;;;;5070547;28;19916;-77
2023/01/17 09:35:36;;;;;;;;;;;-1.70;99.90;;;;;;5068750;28;19909;-77
2023/01/17 09:38:02;;;;;;;;;;;-1.60;99.90;;;;;;5069889;28;19915;-77
2023/01/17 09:40:28;;;;;;;;;;;-1.60;99.90;;;;;;5070431;28;19919;-77
2023/01/17 09:42:56;;;;;;;;;;;-1.50;99.90;;;;;;5062031;28;19913;-77
2023/01/17 09:45:24;;;;;;;;;;;-1.50;99.90;;;;;;5049768;28;19913;-77
2023/01/17 09:47:51;;;;;;;;;;;-1.40;99.90;;;;;;5049952;28;19920;-77
2023/01/17 09:50:25;;;;;;;;;;;-1.40;99.90;;;;;;5050519;28;20515;-78
2023/01/17 09:52:59;;;;;;;;;;;-1.30;99.90;;;;;;5049110;28;19954;-78
2023/01/17 09:55:25;;;;;;;;;;;-1.30;99.90;;;;;;5059442;28;19977;-77
2023/01/17 09:58:07;;;;;;;;;;;-1.30;99.90;;;;;;5063822;28;20218;-77
2023/01/17 10:00:35;;;;;;;;;;;-1.20;99.90;;;;;;5055483;28;20390;-82
2023/01/17 10:03:16;;;;;;;;;;;-1.20;99.90;;;;;;5063377;28;20066;-78
2023/01/17 10:06:03;;;;;;;;;;;-1.10;99.90;;;;;;5065164;28;19932;-80
2023/01/17 10:08:29;;;;;;;;;;;-1.10;99.90;;;;;;5063217;28;19924;-78
2023/01/17 10:10:56;;;;;;;;;;;-1.00;99.90;;;;;;5072254;28;19913;-79
2023/01/17 10:14:00;;;;;;;;;;;-1.00;99.90;;;;;;5073484;28;19909;-77
2023/01/17 10:16:35;;;;;;;;;;;-1.00;99.90;;;;;;5010381;28;19941;-78
2023/01/17 10:19:06;;;;;;;;;;;-1.00;99.90;;;;;;5010281;28;19906;-78
2023/01/17 10:21:38;;;;;;;;;;;-0.90;99.90;;;;;;5046228;28;19913;-75
2023/01/17 10:24:12;;;;;;;;;;;-0.90;99.90;;;;;;5066488;28;19966;-78
2023/01/17 10:26:38;;;;;;;;;;;-0.90;99.90;;;;;;5062178;28;20326;-78
2023/01/17 10:29:07;;;;;;;;;;;-0.80;99.90;;;;;;5067241;28;19955;-78
2023/01/17 10:31:35;;;;;;;;;;;-0.80;99.90;;;;;;5073273;28;19909;-78
2023/01/17 10:34:22;;;;;;;;;;;-0.80;99.90;;;;;;5072794;28;19905;-78
2023/01/17 10:36:50;;;;;;;;;;;-0.70;99.90;;;;;;5072791;28;20015;-77
2023/01/17 10:39:22;;;;;;;;;;;-0.70;99.90;;;;;;5071999;28;20296;-77
2023/01/17 10:42:00;;;;;;;;;;;-0.60;99.90;;;;;;5072413;28;19963;-77
2023/01/17 10:44:29;;;;;;;;;;;-0.60;99.90;;;;;;5088410;28;19916;-77
2023/01/17 10:46:57;;;;;;;;;;;-0.60;99.90;;;;;;5072112;28;19958;-77
2023/01/17 10:49:24;;;;;;;;;;;-0.60;99.90;;;;;;5072682;28;19921;-78
2023/01/17 10:51:51;;;;;;;;;;;-0.50;99.90;;;;;;5072422;28;19908;-78
2023/01/17 10:54:20;;;;;;;;;;;-0.50;99.90;;;;;;5072671;28;20049;-78
2023/01/17 10:56:46;;;;;;;;;;;-0.50;99.90;;;;;;5072397;28;19954;-78
2023/01/17 10:59:12;;;;;;;;;;;-0.50;99.90;;;;;;5072995;28;20307;-78
2023/01/17 11:01:37;;;;;;;;;;;-0.40;99.90;;;;;;5072405;28;19931;-77
2023/01/17 11:04:10;;;;;;;;;;;-0.40;99.90;;;;;;5072362;28;19904;-77
2023/01/17 11:06:37;;;;;;;;;;;-0.30;99.90;;;;;;5073375;28;19912;-78
2023/01/17 11:09:05;;;;;;;;;;;-0.30;99.90;;;;;;5073107;28;20357;-78
2023/01/17 11:11:32;;;;;;;;;;;-0.30;99.90;;;;;;5073873;28;19912;-78
2023/01/17 11:14:02;;;;;;;;;;;-0.20;99.90;;;;;;5072085;28;19912;-78
2023/01/17 11:16:30;;;;;;;;;;;-0.10;99.90;;;;;;5074254;28;19977;-77
2023/01/17 11:19:14;;;;;;;;;;;-0.10;99.90;;;;;;5073336;28;20319;-78
2023/01/17 11:21:48;;;;;;;;;;;-0.10;99.90;;;;;;5073548;28;20384;-77
2023/01/17 11:24:18;;;;;;;;;;;-0.10;99.90;;;;;;5074074;28;19912;-77
2023/01/17 11:26:48;;;;;;;;;;;0.00;99.90;;;;;;5073460;28;20015;-81
2023/01/17 11:29:29;;;;;;;;;;;0.10;99.90;;;;;;5072236;28;19917;-77
2023/01/17 11:31:55;;;;;;;;;;;0.10;99.90;;;;;;5073092;28;20430;-77
2023/01/17 11:34:25;;;;;;;;;;;0.20;99.90;;;;;;5073320;28;19908;-77
2023/01/17 11:37:16;;;;;;;;;;;0.30;99.90;;;;;;5073285;28;19909;-78
2023/01/17 11:39:41;;;;;;;;;;;0.30;99.90;;;;;;5073394;28;20365;-77
2023/01/17 11:42:27;;;;;;;;;;;0.30;99.90;;;;;;5073152;28;19954;-77
2023/01/17 11:44:53;;;;;;;;;;;0.40;99.90;;;;;;5073077;28;19909;-77
2023/01/17 11:47:19;;;;;;;;;;;0.40;99.90;;;;;;5072817;28;19920;-76
2023/01/17 11:49:46;;;;;;;;;;;0.40;99.90;;;;;;5073872;28;19912;-81
2023/01/17 11:52:17;;;;;;;;;;;0.50;99.90;;;;;;5073556;28;19915;-76
2023/01/17 11:54:44;;;;;;;;;;;0.50;99.90;;;;;;5072560;28;19926;-77
2023/01/17 11:57:21;;;;;;;;;;;0.50;99.90;;;;;;5072255;28;19909;-75
2023/01/17 11:59:47;;;;;;;;;;;0.50;99.90;;;;;;5072299;28;20321;-82
2023/01/17 12:02:33;;;;;;;;;;;0.60;99.90;;;;;;5072307;28;19913;-77
2023/01/17 12:05:17;;;;;;;;;;;0.60;99.90;;;;;;5030651;28;19908;-77
2023/01/17 12:07:46;;;;;;;;;;;0.60;99.90;;;;;;5072430;28;19912;-77
2023/01/17 12:10:20;;;;;;;;;;;0.70;99.90;;;;;;5072252;28;19919;-78
2023/01/17 12:15:46;;;;;;;;;;;0.70;99.90;;;;;;5072306;28;19914;-77
2023/01/17 12:18:23;;;;;;;;;;;0.70;99.90;;;;;;5071087;28;20389;-78
2023/01/17 12:20:49;;;;;;;;;;;0.70;99.90;;;;;;5072250;28;19923;-77
2023/01/17 12:23:33;;;;;;;;;;;0.80;99.90;;;;;;5072392;28;19908;-77
2023/01/17 12:26:18;;;;;;;;;;;0.80;99.90;;;;;;5072034;28;20401;-77
2023/01/17 12:28:59;;;;;;;;;;;0.80;99.90;;;;;;5072542;28;19970;-78
2023/01/17 12:31:34;;;;;;;;;;;0.80;99.90;;;;;;5072516;28;19908;-78
2023/01/17 12:34:02;;;;;;;;;;;0.80;99.90;;;;;;5071293;28;19968;-77
2023/01/17 12:37:06;;;;;;;;;;;0.80;99.90;;;;;;5072120;28;19955;-77
2023/01/17 12:39:35;;;;;;;;;;;0.80;99.90;;;;;;5009001;28;19961;-75
2023/01/17 12:42:03;;;;;;;;;;;0.90;99.90;;;;;;5008948;28;19916;-75
2023/01/17 12:44:36;;;;;;;;;;;0.90;99.90;;;;;;5030588;28;19995;-76
2023/01/17 12:47:03;;;;;;;;;;;0.90;99.90;;;;;;5057618;28;19913;-77
2023/01/17 12:49:35;;;;;;;;;;;0.90;99.90;;;;;;5072816;28;19981;-77
2023/01/17 12:52:11;;;;;;;;;;;0.90;99.90;;;;;;5069520;28;19913;-77
2023/01/17 12:54:41;;;;;;;;;;;1.00;99.90;;;;;;5058554;28;20342;-77
2023/01/17 12:57:22;;;;;;;;;;;1.00;99.90;;;;;;5061541;28;19974;-77
2023/01/17 13:00:00;;;;;;;;;;;1.00;99.90;;;;;;5063015;28;19913;-81
2023/01/17 13:02:25;;;;;;;;;;;1.10;99.90;;;;;;5061244;28;19915;-79
2023/01/17 13:04:51;;;;;;;;;;;1.10;99.90;;;;;;5062871;28;20336;-78
2023/01/17 13:07:45;;;;;;;;;;;1.20;99.90;;;;;;5066690;28;20420;-77
2023/01/17 13:10:25;;;;;;;;;;;1.20;99.90;;;;;;5044590;28;19916;-77
2023/01/17 13:12:52;;;;;;;;;;;1.20;99.90;;;;;;5059383;28;19951;-77
2023/01/17 13:15:21;;;;;;;;;;;1.20;99.90;;;;;;5065065;28;19913;-77
2023/01/17 13:17:49;;;;;;;;;;;1.20;99.90;;;;;;5057570;28;20345;-81
2023/01/17 13:20:14;;;;;;;;;;;1.20;99.90;;;;;;5068339;28;20326;-77
2023/01/17 13:22:41;;;;;;;;;;;1.30;99.90;;;;;;5053057;28;19915;-81
2023/01/17 13:25:44;;;;;;;;;;;1.30;99.90;;;;;;5058795;28;20181;-78
2023/01/17 13:28:19;;;;;;;;;;;1.40;99.90;;;;;;5018760;28;19917;-77
2023/01/17 13:31:17;;;;;;;;;;;1.40;99.90;;;;;;5022722;28;20462;-77
2023/01/17 13:33:48;;;;;;;;;;;1.40;99.90;;;;;;4978703;28;20374;-77
2023/01/17 13:36:13;;;;;;;;;;;1.40;99.90;;;;;;5021272;28;19934;-78
2023/01/17 13:38:53;;;;;;;;;;;1.40;99.90;;;;;;5023291;28;19920;-78
2023/01/17 13:41:31;;;;;;;;;;;1.50;99.90;;;;;;5022029;28;19909;-77
2023/01/17 13:47:03;;;;;;;;;;;1.50;99.90;;;;;;5022438;28;20439;-79
2023/01/17 13:49:28;;;;;;;;;;;1.50;99.90;;;;;;5012915;28;19913;-77
2023/01/17 13:52:09;;;;;;;;;;;1.60;99.90;;;;;;5017601;28;19920;-76
2023/01/17 13:54:42;;;;;;;;;;;1.70;99.90;;;;;;5021986;28;20282;-77
2023/01/17 13:57:33;;;;;;;;;;;1.70;99.90;;;;;;5005003;28;20629;-77
2023/01/17 14:00:21;;;;;;;;;;;1.70;99.90;;;;;;5066237;28;19919;-77
2023/01/17 14:02:50;;;;;;;;;;;1.70;99.90;;;;;;5075114;28;19930;-77
2023/01/17 14:05:20;;;;;;;;;;;1.80;99.90;;;;;;5074839;28;19958;-77
2023/01/17 14:07:48;;;;;;;;;;;1.80;99.90;;;;;;5074047;28;19913;-77
2023/01/17 14:10:23;;;;;;;;;;;1.80;99.90;;;;;;5074644;28;19912;-76
2023/01/17 14:12:49;;;;;;;;;;;1.80;99.90;;;;;;5074631;28;19984;-82
2023/01/17 14:15:22;;;;;;;;;;;1.80;99.90;;;;;;5074245;28;19931;-77
2023/01/17 14:17:50;;;;;;;;;;;1.90;99.90;;;;;;5074475;28;19992;-77
2023/01/17 14:20:16;;;;;;;;;;;1.90;99.90;;;;;;5073826;28;19909;-77
2023/01/17 14:22:51;;;;;;;;;;;2.00;99.90;;;;;;5072474;28;19915;-77
2023/01/17 14:25:21;;;;;;;;;;;2.10;99.90;;;;;;5072127;28;19908;-77
2023/01/17 14:27:52;;;;;;;;;;;2.00;99.90;;;;;;5072769;28;20222;-77
2023/01/17 14:30:23;;;;;;;;;;;2.00;99.90;;;;;;5072850;28;19951;-77
2023/01/17 14:32:57;;;;;;;;;;;2.00;99.90;;;;;;5072771;28;19908;-77
2023/01/17 14:35:25;;;;;;;;;;;2.00;99.90;;;;;;5072859;28;20380;-76
2023/01/17 14:37:52;;;;;;;;;;;2.00;99.90;;;;;;5072581;28;19958;-82
2023/01/17 14:40:25;;;;;;;;;;;2.00;99.90;;;;;;5072443;28;19965;-77
2023/01/17 14:43:11;;;;;;;;;;;2.10;99.90;;;;;;5072853;28;19908;-80
2023/01/17 14:45:37;;;;;;;;;;;2.10;99.90;;;;;;5072720;28;20214;-77
2023/01/17 14:48:09;;;;;;;;;;;2.00;99.90;;;;;;5056588;28;19912;-77
2023/01/17 14:50:36;;;;;;;;;;;2.10;99.90;;;;;;5053669;28;19955;-77
2023/01/17 14:53:11;;;;;;;;;;;2.10;99.90;;;;;;5052420;28;19939;-77
2023/01/17 14:55:45;;;;;;;;;;;2.10;99.90;;;;;;5053035;28;20369;-76
2023/01/17 14:58:22;;;;;;;;;;;2.10;99.90;;;;;;5051980;28;19999;-77
2023/01/17 15:00:49;;;;;;;;;;;2.10;99.90;;;;;;5052299;28;19913;-75
2023/01/17 15:03:15;;;;;;;;;;;2.10;99.90;;;;;;5051869;28;19913;-77
2023/01/17 15:05:41;;;;;;;;;;;2.10;99.90;;;;;;5052801;28;19974;-76
2023/01/17 15:08:12;;;;;;;;;;;2.00;99.90;;;;;;5051502;28;19925;-77
2023/01/17 15:10:45;;;;;;;;;;;2.00;99.90;;;;;;5052489;28;19925;-76
2023/01/17 15:13:13;;;;;;;;;;;1.90;99.90;;;;;;5051724;28;19917;-76
2023/01/17 15:15:38;;;;;;;;;;;1.90;99.90;;;;;;5052270;28;20364;-76
2023/01/17 15:18:07;;;;;;;;;;;1.90;99.90;;;;;;5051495;28;19908;-76
2023/01/17 15:20:32;;;;;;;;;;;2.00;99.90;;;;;;5051713;28;20285;-77
2023/01/17 15:22:58;;;;;;;;;;;2.00;99.90;;;;;;5053511;28;19913;-76
2023/01/17 15:25:23;;;;;;;;;;;2.00;99.90;;;;;;5059748;28;19909;-78
2023/01/17 15:27:49;;;;;;;;;;;2.10;99.90;;;;;;5060011;28;20281;-78
2023/01/17 15:30:15;;;;;;;;;;;2.10;99.90;;;;;;5055364;28;20449;-76
2023/01/17 15:32:46;;;;;;;;;;;2.10;99.90;;;;;;5058566;28;19932;-76
2023/01/17 15:35:16;;;;;;;;;;;2.10;99.90;;;;;;5061628;28;19969;-77
2023/01/17 15:37:41;;;;;;;;;;;2.00;99.90;;;;;;5061051;28;20015;-76
2023/01/17 15:40:10;;;;;;;;;;;2.00;99.90;;;;;;5059711;28;19995;-76
2023/01/17 15:42:37;;;;;;;;;;;2.00;99.90;;;;;;5059938;28;20277;-76
2023/01/17 15:45:04;;;;;;;;;;;2.00;99.90;;;;;;5060007;28;19947;-76
2023/01/17 15:47:29;;;;;;;;;;;2.00;99.90;;;;;;5057772;28;19920;-76
2023/01/17 15:49:55;;;;;;;;;;;2.00;99.90;;;;;;5061202;28;19912;-76
2023/01/17 15:52:20;;;;;;;;;;;2.00;99.90;;;;;;5060634;28;19908;-75
2023/01/17 15:54:49;;;;;;;;;;;1.90;99.90;;;;;;5057711;28;20033;-76
2023/01/17 15:57:18;;;;;;;;;;;1.90;99.90;;;;;;5058699;28;21876;-76
2023/01/17 15:59:54;;;;;;;;;;;2.00;99.90;;;;;;5060645;28;19923;-76
2023/01/17 16:02:33;;;;;;;;;;;1.90;99.90;;;;;;5061881;28;19920;-76